Acadiana Regional Airport
KARA : rendu visible

Aérodrome :











RETROUVEZ-NOUS SUR...

 
LOGIN :

S'inscrire | Disclaimer

   EN    FR    IT 

 









Légende :    VFR   VFR Marginal   IFR   IFR Intensif   IFR Très Intensif
Visi : 
Plafond : 
>= 8 km
>= 3000ft
5 à 8 km
1000 à 3000 ft
1500m à 5 km
500 à 1000 ft
800 à 1500m
200 à 500 ft
< 800m
< 200 ft
Symboles :   Orages  Brouillard  Fortes neiges  Fortes précipitations  Vent > 20 kt






- Altitude de l'aérodrome : 24 ft


KARA - Acadiana Regional

DERNIER METAR :
  • 040953Z AUTO 01013KT 10SM OVC011 09/08 A3014 RMK AO2 SLP205 T00940078

METARs EXPIRÉS :
  • 040939Z AUTO 35015G19KT 10SM OVC010 09/08 A3014 RMK AO2 T00940083
  • 040853Z AUTO 34009KT 10SM OVC008 09/09 A3014 RMK AO2 CIG 007V011 SLP204 T00940089 58001
  • 040833Z AUTO 36010KT 10SM BKN012 OVC032 10/08 A3013 RMK AO2 T01000083
  • 040821Z AUTO 01010KT 10SM SCT008 OVC032 10/08 A3013 RMK AO2 T01000083
  • 040753Z AUTO 36010KT 9SM OVC009 10/09 A3014 RMK AO2 CIG 007V012 SLP204 T01000094

TAF KARA
Valide du 04 à 09h jusqu'au 05 à 06h UTC


040900Z 0409/0506 35012KT P6SM SCT008 OVC012
TEMPO 0409/0413 BKN008
FM041600 35014G20KT P6SM SCT025 BKN060
FM050000 35008KT P6SM SKC
FIR KZHU / Amérique du Nord



MET'MAP, la Météo Aéronautique d'un coup d'oeil ! - Copyright ORBIFLY Décembre 2007 - Disclaimer

ORBIFLY MET'MAP TEAM :

Programmation & Développement : Alexandra Zaïnal
Sur une idée originale de : Baudouin d'Aumeries
Assistance à la programmation : Marc-Olivier Méhu
Soutien technique & logistique : Manuel Goepfert

Contact : metmap@orbifly.com




SOURCES & CREDITS :

   NOAA       Earth
Advisory